EZS12VL LSGG-LFMN
Flight info
| Callsign | EZS12VL |
|---|---|
| Flight time | 0h 41m |
| Altitude | 23000 |
| Route | MEDAM DCT VEVAR |
| Aircraft | A320/M-SDE2E3FGHIJ1RWXYZ/LB1 |
Departure
| Time | 2026-05-06 09:22 |
|---|---|
| Airport | Geneva International Airport (LSGG) |
Arrival
| Time | 2026-05-06 10:03 |
|---|---|
| Airport | Nice-Côte d'Azur Airport (LFMN) |
| Time | Latitude | Longitude | Altitude | Speed | Heading |
|---|---|---|---|---|---|
| 2026-05-06 08:59 | 46.23027 | 6.10576 | 1393 ft | 0 kts | 135° |
| 2026-05-06 09:12 | 46.23042 | 6.10554 | 1406 ft | 4 kts | 126° |
| 2026-05-06 09:12 | 46.23054 | 6.10521 | 1398 ft | 4 kts | 97° |
| 2026-05-06 09:12 | 46.23050 | 6.10489 | 1402 ft | 2 kts | 46° |
| 2026-05-06 09:13 | 46.23046 | 6.10483 | 1402 ft | 0 kts | 46° |
| 2026-05-06 09:15 | 46.23055 | 6.10494 | 1400 ft | 4 kts | 33° |
| 2026-05-06 09:15 | 46.23072 | 6.10484 | 1404 ft | 2 kts | 326° |
| 2026-05-06 09:15 | 46.23093 | 6.10453 | 1399 ft | 8 kts | 316° |
| 2026-05-06 09:15 | 46.23139 | 6.10389 | 1401 ft | 9 kts | 315° |
| 2026-05-06 09:16 | 46.23186 | 6.10342 | 1398 ft | 7 kts | 2° |
| 2026-05-06 09:16 | 46.23218 | 6.10376 | 1402 ft | 7 kts | 46° |
| 2026-05-06 09:16 | 46.23271 | 6.10454 | 1400 ft | 14 kts | 44° |
| 2026-05-06 09:16 | 46.23355 | 6.10578 | 1399 ft | 20 kts | 45° |
| 2026-05-06 09:17 | 46.23457 | 6.10718 | 1401 ft | 18 kts | 45° |
| 2026-05-06 09:17 | 46.23533 | 6.10828 | 1397 ft | 13 kts | 45° |
| 2026-05-06 09:17 | 46.23591 | 6.10912 | 1398 ft | 11 kts | 45° |
| 2026-05-06 09:17 | 46.23640 | 6.10982 | 1399 ft | 9 kts | 45° |
| 2026-05-06 09:18 | 46.23678 | 6.11039 | 1400 ft | 9 kts | 45° |
| 2026-05-06 09:18 | 46.23726 | 6.11108 | 1401 ft | 11 kts | 45° |
| 2026-05-06 09:18 | 46.23780 | 6.11192 | 1397 ft | 11 kts | 46° |
| 2026-05-06 09:18 | 46.23854 | 6.11298 | 1402 ft | 19 kts | 45° |
| 2026-05-06 09:19 | 46.23964 | 6.11457 | 1400 ft | 25 kts | 46° |
| 2026-05-06 09:19 | 46.24088 | 6.11643 | 1398 ft | 26 kts | 45° |
| 2026-05-06 09:19 | 46.24202 | 6.11812 | 1400 ft | 16 kts | 45° |
| 2026-05-06 09:19 | 46.24278 | 6.11923 | 1394 ft | 11 kts | 46° |
| 2026-05-06 09:20 | 46.24328 | 6.11933 | 1396 ft | 5 kts | 316° |
| 2026-05-06 09:20 | 46.24342 | 6.11879 | 1403 ft | 9 kts | 264° |
| 2026-05-06 09:20 | 46.24325 | 6.11789 | 1395 ft | 9 kts | 256° |
| 2026-05-06 09:20 | 46.24326 | 6.11696 | 1396 ft | 9 kts | 286° |
| 2026-05-06 09:21 | 46.24305 | 6.11626 | 1401 ft | 8 kts | 224° |
| 2026-05-06 09:21 | 46.24244 | 6.11539 | 1396 ft | 26 kts | 225° |
| 2026-05-06 09:21 | 46.23948 | 6.11105 | 1407 ft | 94 kts | 225° |
| 2026-05-06 09:21 | 46.23353 | 6.10233 | 1408 ft | 147 kts | 225° |
| 2026-05-06 09:22 | 46.22609 | 6.09135 | 1972 ft | 154 kts | 226° |
| 2026-05-06 09:22 | 46.21853 | 6.08023 | 2779 ft | 156 kts | 226° |
| 2026-05-06 09:22 | 46.21087 | 6.06929 | 3526 ft | 154 kts | 224° |
| 2026-05-06 09:22 | 46.20293 | 6.05804 | 4043 ft | 166 kts | 225° |
| 2026-05-06 09:23 | 46.19465 | 6.04595 | 4619 ft | 172 kts | 225° |
| 2026-05-06 09:23 | 46.18583 | 6.03315 | 4975 ft | 190 kts | 225° |
| 2026-05-06 09:23 | 46.17605 | 6.01876 | 5228 ft | 218 kts | 225° |
| 2026-05-06 09:23 | 46.16480 | 6.00200 | 5679 ft | 240 kts | 226° |
| 2026-05-06 09:24 | 46.15276 | 5.98420 | 6367 ft | 254 kts | 225° |
| 2026-05-06 09:24 | 46.14020 | 5.96575 | 7224 ft | 261 kts | 225° |
| 2026-05-06 09:24 | 46.12430 | 5.95233 | 8052 ft | 274 kts | 198° |
| 2026-05-06 09:24 | 46.10514 | 5.95073 | 9029 ft | 282 kts | 172° |
| 2026-05-06 09:25 | 46.08716 | 5.96138 | 9991 ft | 290 kts | 147° |
| 2026-05-06 09:25 | 46.07378 | 5.98322 | 10926 ft | 298 kts | 121° |
| 2026-05-06 09:25 | 46.06636 | 6.01195 | 11444 ft | 318 kts | 111° |
| 2026-05-06 09:25 | 46.05972 | 6.04339 | 11874 ft | 335 kts | 109° |
| 2026-05-06 09:26 | 46.05324 | 6.07595 | 12603 ft | 341 kts | 109° |
| 2026-05-06 09:26 | 46.04479 | 6.10791 | 13369 ft | 343 kts | 121° |
| 2026-05-06 09:26 | 46.03157 | 6.13634 | 14098 ft | 342 kts | 134° |
| 2026-05-06 09:26 | 46.01411 | 6.15943 | 14776 ft | 341 kts | 147° |
| 2026-05-06 09:27 | 45.99481 | 6.17945 | 15491 ft | 343 kts | 147° |
| 2026-05-06 09:27 | 45.97539 | 6.19975 | 16177 ft | 347 kts | 146° |
| 2026-05-06 09:27 | 45.95586 | 6.22033 | 16886 ft | 350 kts | 146° |
| 2026-05-06 09:27 | 45.93618 | 6.24119 | 17579 ft | 353 kts | 146° |
| 2026-05-06 09:28 | 45.91634 | 6.26224 | 18292 ft | 356 kts | 146° |
| 2026-05-06 09:28 | 45.89632 | 6.28345 | 18890 ft | 359 kts | 146° |
| 2026-05-06 09:28 | 45.87615 | 6.30476 | 19461 ft | 361 kts | 146° |
| 2026-05-06 09:28 | 45.85590 | 6.32625 | 20057 ft | 362 kts | 146° |
| 2026-05-06 09:29 | 45.83542 | 6.34734 | 20699 ft | 362 kts | 151° |
| 2026-05-06 09:29 | 45.81248 | 6.36199 | 21261 ft | 363 kts | 160° |
| 2026-05-06 09:29 | 45.78882 | 6.37497 | 21838 ft | 365 kts | 159° |
| 2026-05-06 09:29 | 45.76530 | 6.38929 | 22366 ft | 370 kts | 157° |
| 2026-05-06 09:30 | 45.74172 | 6.40477 | 22819 ft | 374 kts | 156° |
| 2026-05-06 09:30 | 45.71830 | 6.42065 | 22897 ft | 366 kts | 156° |
| 2026-05-06 09:30 | 45.69583 | 6.43599 | 22899 ft | 352 kts | 156° |
| 2026-05-06 09:30 | 45.67385 | 6.45084 | 22899 ft | 348 kts | 156° |
| 2026-05-06 09:31 | 45.65197 | 6.46544 | 22896 ft | 347 kts | 156° |
| 2026-05-06 09:31 | 45.63005 | 6.47991 | 22900 ft | 347 kts | 157° |
| 2026-05-06 09:31 | 45.60814 | 6.49428 | 22895 ft | 346 kts | 157° |
| 2026-05-06 09:31 | 45.58622 | 6.50858 | 22893 ft | 346 kts | 157° |
| 2026-05-06 09:32 | 45.56422 | 6.52290 | 22896 ft | 349 kts | 158° |
| 2026-05-06 09:32 | 45.54207 | 6.53729 | 22896 ft | 350 kts | 158° |
| 2026-05-06 09:32 | 45.51990 | 6.55167 | 22892 ft | 350 kts | 158° |
| 2026-05-06 09:32 | 45.49774 | 6.56608 | 22889 ft | 350 kts | 158° |
| 2026-05-06 09:33 | 45.47557 | 6.58050 | 22890 ft | 350 kts | 158° |
| 2026-05-06 09:33 | 45.45339 | 6.59491 | 22893 ft | 351 kts | 158° |
| 2026-05-06 09:33 | 45.43089 | 6.60948 | 22875 ft | 364 kts | 159° |
| 2026-05-06 09:33 | 45.40731 | 6.62471 | 22889 ft | 380 kts | 159° |
| 2026-05-06 09:34 | 45.38273 | 6.64055 | 22892 ft | 396 kts | 160° |
| 2026-05-06 09:34 | 45.35718 | 6.65703 | 22888 ft | 411 kts | 160° |
| 2026-05-06 09:34 | 45.33089 | 6.67405 | 22921 ft | 420 kts | 160° |
| 2026-05-06 09:34 | 45.30421 | 6.69143 | 23299 ft | 423 kts | 160° |
| 2026-05-06 09:35 | 45.27736 | 6.70892 | 23673 ft | 426 kts | 160° |
| 2026-05-06 09:35 | 45.25034 | 6.72647 | 24070 ft | 428 kts | 160° |
| 2026-05-06 09:35 | 45.22319 | 6.74404 | 24483 ft | 429 kts | 160° |
| 2026-05-06 09:35 | 45.19597 | 6.76159 | 24863 ft | 431 kts | 161° |
| 2026-05-06 09:36 | 45.16861 | 6.77910 | 25201 ft | 432 kts | 162° |
| 2026-05-06 09:36 | 45.14120 | 6.79655 | 25638 ft | 432 kts | 162° |
| 2026-05-06 09:36 | 45.11370 | 6.81402 | 26014 ft | 434 kts | 162° |
| 2026-05-06 09:36 | 45.08613 | 6.83154 | 26362 ft | 435 kts | 162° |
| 2026-05-06 09:37 | 45.05846 | 6.84905 | 26723 ft | 436 kts | 162° |
| 2026-05-06 09:37 | 45.03069 | 6.86661 | 27040 ft | 438 kts | 163° |
| 2026-05-06 09:37 | 45.00282 | 6.88422 | 27354 ft | 440 kts | 163° |
| 2026-05-06 09:37 | 44.97489 | 6.90193 | 27577 ft | 440 kts | 163° |
| 2026-05-06 09:38 | 44.94695 | 6.91962 | 27941 ft | 440 kts | 163° |
| 2026-05-06 09:38 | 44.91898 | 6.93734 | 28297 ft | 441 kts | 163° |
| 2026-05-06 09:38 | 44.89087 | 6.95507 | 28638 ft | 443 kts | 163° |
| 2026-05-06 09:38 | 44.86269 | 6.97282 | 28829 ft | 444 kts | 163° |
| 2026-05-06 09:39 | 44.83449 | 6.99061 | 28860 ft | 444 kts | 163° |
| 2026-05-06 09:39 | 44.77760 | 7.01810 | 28821 ft | 415 kts | 176° |
| 2026-05-06 09:40 | 44.72127 | 7.03152 | 28852 ft | 408 kts | 177° |
| 2026-05-06 09:40 | 44.63763 | 7.05115 | 28849 ft | 408 kts | 177° |
| 2026-05-06 09:41 | 44.58242 | 7.06445 | 28637 ft | 385 kts | 177° |
| 2026-05-06 09:41 | 44.55648 | 7.07082 | 28467 ft | 372 kts | 177° |
| 2026-05-06 09:41 | 44.53132 | 7.07690 | 28097 ft | 363 kts | 178° |
| 2026-05-06 09:42 | 44.50687 | 7.08264 | 27573 ft | 359 kts | 178° |
| 2026-05-06 09:42 | 44.48231 | 7.08829 | 26989 ft | 356 kts | 178° |
| 2026-05-06 09:42 | 44.45796 | 7.09391 | 26393 ft | 353 kts | 178° |
| 2026-05-06 09:42 | 44.43388 | 7.09956 | 25925 ft | 347 kts | 178° |
| 2026-05-06 09:43 | 44.41030 | 7.10515 | 25515 ft | 341 kts | 179° |
| 2026-05-06 09:43 | 44.38711 | 7.11065 | 25090 ft | 335 kts | 179° |
| 2026-05-06 09:43 | 44.36429 | 7.11606 | 24690 ft | 331 kts | 179° |
| 2026-05-06 09:43 | 44.34168 | 7.12141 | 24263 ft | 328 kts | 179° |
| 2026-05-06 09:44 | 44.31931 | 7.12666 | 23840 ft | 324 kts | 179° |
| 2026-05-06 09:44 | 44.29720 | 7.13187 | 23430 ft | 322 kts | 180° |
| 2026-05-06 09:44 | 44.27517 | 7.13701 | 22961 ft | 320 kts | 179° |
| 2026-05-06 09:44 | 44.25335 | 7.14210 | 22553 ft | 317 kts | 179° |
| 2026-05-06 09:45 | 44.23166 | 7.14715 | 22139 ft | 315 kts | 179° |
| 2026-05-06 09:45 | 44.21033 | 7.15398 | 21752 ft | 319 kts | 169° |
| 2026-05-06 09:45 | 44.18962 | 7.16589 | 21600 ft | 324 kts | 166° |
| 2026-05-06 09:45 | 44.16890 | 7.17815 | 21453 ft | 324 kts | 166° |
| 2026-05-06 09:46 | 44.14812 | 7.19032 | 21292 ft | 324 kts | 166° |
| 2026-05-06 09:46 | 44.13433 | 7.19835 | 21173 ft | 325 kts | 166° |
| 2026-05-06 09:46 | 44.10638 | 7.21461 | 20943 ft | 325 kts | 166° |
| 2026-05-06 09:46 | 44.09260 | 7.22265 | 20823 ft | 324 kts | 166° |
| 2026-05-06 09:47 | 44.07190 | 7.23477 | 20655 ft | 321 kts | 166° |
| 2026-05-06 09:47 | 44.05140 | 7.24679 | 20493 ft | 319 kts | 166° |
| 2026-05-06 09:47 | 44.03092 | 7.25880 | 20312 ft | 319 kts | 166° |
| 2026-05-06 09:47 | 44.01047 | 7.27080 | 20139 ft | 319 kts | 165° |
| 2026-05-06 09:48 | 43.98999 | 7.28278 | 19965 ft | 320 kts | 166° |
| 2026-05-06 09:48 | 43.96955 | 7.29472 | 19645 ft | 318 kts | 166° |
| 2026-05-06 09:48 | 43.94919 | 7.30658 | 19215 ft | 317 kts | 165° |
| 2026-05-06 09:48 | 43.92885 | 7.31841 | 18838 ft | 316 kts | 165° |
| 2026-05-06 09:49 | 43.90862 | 7.33019 | 18484 ft | 315 kts | 165° |
| 2026-05-06 09:49 | 43.88843 | 7.34195 | 18109 ft | 315 kts | 165° |
| 2026-05-06 09:49 | 43.86825 | 7.35370 | 17704 ft | 314 kts | 164° |
| 2026-05-06 09:49 | 43.84812 | 7.36542 | 17345 ft | 313 kts | 164° |
| 2026-05-06 09:50 | 43.82867 | 7.37931 | 16987 ft | 318 kts | 153° |
| 2026-05-06 09:50 | 43.81108 | 7.39818 | 16619 ft | 320 kts | 147° |
| 2026-05-06 09:50 | 43.79381 | 7.41759 | 16267 ft | 319 kts | 147° |
| 2026-05-06 09:50 | 43.77664 | 7.43686 | 15888 ft | 317 kts | 147° |
| 2026-05-06 09:51 | 43.75951 | 7.45603 | 15497 ft | 316 kts | 147° |
| 2026-05-06 09:51 | 43.74243 | 7.47508 | 15162 ft | 315 kts | 147° |
| 2026-05-06 09:51 | 43.72543 | 7.49401 | 14836 ft | 313 kts | 147° |
| 2026-05-06 09:51 | 43.70852 | 7.51287 | 14509 ft | 312 kts | 147° |
| 2026-05-06 09:52 | 43.69213 | 7.53245 | 14186 ft | 314 kts | 139° |
| 2026-05-06 09:52 | 43.67872 | 7.55639 | 13872 ft | 318 kts | 125° |
| 2026-05-06 09:52 | 43.66935 | 7.58419 | 13557 ft | 321 kts | 113° |
| 2026-05-06 09:52 | 43.66139 | 7.61284 | 13175 ft | 316 kts | 122° |
| 2026-05-06 09:53 | 43.65022 | 7.63874 | 12817 ft | 313 kts | 126° |
| 2026-05-06 09:53 | 43.63892 | 7.66434 | 12466 ft | 312 kts | 126° |
| 2026-05-06 09:53 | 43.62769 | 7.68983 | 12114 ft | 310 kts | 126° |
| 2026-05-06 09:53 | 43.61543 | 7.71388 | 11764 ft | 302 kts | 141° |
| 2026-05-06 09:54 | 43.59858 | 7.72959 | 11420 ft | 288 kts | 164° |
| 2026-05-06 09:54 | 43.57944 | 7.73489 | 11065 ft | 277 kts | 185° |
| 2026-05-06 09:54 | 43.56091 | 7.73023 | 10694 ft | 268 kts | 205° |
| 2026-05-06 09:54 | 43.54523 | 7.71727 | 10209 ft | 261 kts | 222° |
| 2026-05-06 09:55 | 43.53165 | 7.70076 | 9528 ft | 260 kts | 223° |
| 2026-05-06 09:55 | 43.51872 | 7.68353 | 8827 ft | 258 kts | 232° |
| 2026-05-06 09:55 | 43.50963 | 7.66247 | 8145 ft | 256 kts | 248° |
| 2026-05-06 09:55 | 43.50540 | 7.63885 | 7470 ft | 255 kts | 264° |
| 2026-05-06 09:56 | 43.50420 | 7.61433 | 6984 ft | 256 kts | 265° |
| 2026-05-06 09:56 | 43.50292 | 7.58996 | 6599 ft | 254 kts | 265° |
| 2026-05-06 09:56 | 43.50162 | 7.56589 | 6004 ft | 251 kts | 266° |
| 2026-05-06 09:56 | 43.50140 | 7.54183 | 5526 ft | 251 kts | 280° |
| 2026-05-06 09:57 | 43.50842 | 7.52033 | 5305 ft | 245 kts | 307° |
| 2026-05-06 09:57 | 43.52164 | 7.50635 | 5179 ft | 239 kts | 334° |
| 2026-05-06 09:57 | 43.53759 | 7.50104 | 5052 ft | 232 kts | 346° |
| 2026-05-06 09:57 | 43.55315 | 7.49733 | 4915 ft | 223 kts | 346° |
| 2026-05-06 09:58 | 43.56823 | 7.49348 | 4647 ft | 218 kts | 339° |
| 2026-05-06 09:58 | 43.58152 | 7.48456 | 4355 ft | 210 kts | 318° |
| 2026-05-06 09:58 | 43.59130 | 7.47013 | 4064 ft | 204 kts | 301° |
| 2026-05-06 09:58 | 43.59948 | 7.45367 | 3857 ft | 212 kts | 302° |
| 2026-05-06 09:59 | 43.60792 | 7.43704 | 3601 ft | 211 kts | 302° |
| 2026-05-06 09:59 | 43.61646 | 7.42035 | 3348 ft | 214 kts | 302° |
| 2026-05-06 09:59 | 43.62502 | 7.40364 | 3082 ft | 212 kts | 301° |
| 2026-05-06 09:59 | 43.63353 | 7.38704 | 2816 ft | 212 kts | 301° |
| 2026-05-06 10:00 | 43.64201 | 7.37043 | 2544 ft | 212 kts | 301° |
| 2026-05-06 10:00 | 43.65053 | 7.35369 | 2293 ft | 213 kts | 300° |
| 2026-05-06 10:00 | 43.65904 | 7.33700 | 2017 ft | 209 kts | 301° |
| 2026-05-06 10:00 | 43.66718 | 7.32102 | 1735 ft | 198 kts | 301° |
| 2026-05-06 10:01 | 43.67492 | 7.30586 | 1467 ft | 187 kts | 302° |
| 2026-05-06 10:01 | 43.68214 | 7.29171 | 1237 ft | 173 kts | 303° |
| 2026-05-06 10:01 | 43.68794 | 7.27812 | 969 ft | 161 kts | 287° |
| 2026-05-06 10:01 | 43.68880 | 7.26349 | 788 ft | 147 kts | 259° |
| 2026-05-06 10:02 | 43.68528 | 7.25068 | 595 ft | 141 kts | 234° |
| 2026-05-06 10:02 | 43.67870 | 7.24102 | 370 ft | 137 kts | 217° |
| 2026-05-06 10:02 | 43.67203 | 7.23190 | 171 ft | 134 kts | 224° |
| 2026-05-06 10:02 | 43.66554 | 7.22293 | 36 ft | 126 kts | 223° |
| 2026-05-06 10:03 | 43.66054 | 7.21607 | 20 ft | 62 kts | 225° |
| 2026-05-06 10:03 | 43.65843 | 7.21320 | 22 ft | 37 kts | 225° |
| 2026-05-06 10:03 | 43.65678 | 7.21088 | 23 ft | 31 kts | 226° |
| 2026-05-06 10:03 | 43.65627 | 7.20939 | 24 ft | 15 kts | 292° |
| 2026-05-06 10:04 | 43.65697 | 7.20891 | 22 ft | 4 kts | 349° |
| 2026-05-06 10:04 | 43.65729 | 7.20883 | 22 ft | 5 kts | 349° |
| 2026-05-06 10:04 | 43.65766 | 7.20874 | 22 ft | 5 kts | 350° |
| 2026-05-06 10:04 | 43.65807 | 7.20866 | 22 ft | 8 kts | 352° |
| 2026-05-06 10:05 | 43.65870 | 7.20853 | 22 ft | 9 kts | 351° |
| 2026-05-06 10:05 | 43.65931 | 7.20837 | 22 ft | 9 kts | 349° |
| 2026-05-06 10:05 | 43.65989 | 7.20824 | 22 ft | 8 kts | 351° |
| 2026-05-06 10:05 | 43.66043 | 7.20812 | 22 ft | 8 kts | 350° |
| 2026-05-06 10:06 | 43.66098 | 7.20799 | 22 ft | 8 kts | 351° |
| 2026-05-06 10:06 | 43.66127 | 7.20750 | 22 ft | 6 kts | 268° |
| 2026-05-06 10:06 | 43.66122 | 7.20708 | 22 ft | 3 kts | 259° |
| 2026-05-06 10:06 | 43.66119 | 7.20688 | 22 ft | 0 kts | 261° |